sensor_id;sensor_type;location;lat;lon;timestamp;P1;durP1;ratioP1;P2;durP2;ratioP2
21326;SDS011;10822;51.532;6.770;2022-09-09T00:04:15;0.85;;;0.60;;
21326;SDS011;10822;51.532;6.770;2022-09-09T00:07:03;1.70;;;0.70;;
21326;SDS011;10822;51.532;6.770;2022-09-09T00:09:31;1.63;;;0.50;;
21326;SDS011;10822;51.532;6.770;2022-09-09T00:12:12;0.80;;;0.50;;
21326;SDS011;10822;51.532;6.770;2022-09-09T00:22:51;1.25;;;0.60;;
21326;SDS011;10822;51.532;6.770;2022-09-09T00:25:40;1.27;;;0.60;;
21326;SDS011;10822;51.532;6.770;2022-09-09T00:28:13;1.02;;;0.65;;
21326;SDS011;10822;51.532;6.770;2022-09-09T00:30:42;1.00;;;0.60;;
21326;SDS011;10822;51.532;6.770;2022-09-09T00:33:10;2.58;;;0.57;;
21326;SDS011;10822;51.532;6.770;2022-09-09T00:35:41;0.82;;;0.43;;
21326;SDS011;10822;51.532;6.770;2022-09-09T00:38:16;1.25;;;0.50;;
21326;SDS011;10822;51.532;6.770;2022-09-09T00:40:51;2.05;;;0.68;;
21326;SDS011;10822;51.532;6.770;2022-09-09T00:43:24;1.73;;;0.80;;
21326;SDS011;10822;51.532;6.770;2022-09-09T00:48:35;1.80;;;0.85;;
21326;SDS011;10822;51.532;6.770;2022-09-09T00:56:24;2.10;;;1.08;;
21326;SDS011;10822;51.532;6.770;2022-09-09T01:01:38;2.42;;;0.80;;
21326;SDS011;10822;51.532;6.770;2022-09-09T01:04:13;2.08;;;0.90;;
21326;SDS011;10822;51.532;6.770;2022-09-09T01:06:41;1.70;;;0.98;;
21326;SDS011;10822;51.532;6.770;2022-09-09T01:16:58;2.20;;;0.73;;
21326;SDS011;10822;51.532;6.770;2022-09-09T01:19:34;3.83;;;0.88;;
21326;SDS011;10822;51.532;6.770;2022-09-09T01:22:08;2.63;;;0.88;;
21326;SDS011;10822;51.532;6.770;2022-09-09T01:24:47;1.92;;;0.60;;
21326;SDS011;10822;51.532;6.770;2022-09-09T01:27:14;3.30;;;0.70;;
21326;SDS011;10822;51.532;6.770;2022-09-09T01:29:40;1.50;;;1.00;;
21326;SDS011;10822;51.532;6.770;2022-09-09T01:34:51;0.60;;;0.60;;
21326;SDS011;10822;51.532;6.770;2022-09-09T01:37:17;2.30;;;0.60;;
21326;SDS011;10822;51.532;6.770;2022-09-09T01:39:43;1.63;;;0.60;;
21326;SDS011;10822;51.532;6.770;2022-09-09T01:42:12;2.40;;;0.70;;
21326;SDS011;10822;51.532;6.770;2022-09-09T01:44:39;0.93;;;0.60;;
21326;SDS011;10822;51.532;6.770;2022-09-09T01:47:05;0.80;;;0.60;;
21326;SDS011;10822;51.532;6.770;2022-09-09T01:49:31;1.67;;;0.60;;
21326;SDS011;10822;51.532;6.770;2022-09-09T01:51:58;1.48;;;0.70;;
21326;SDS011;10822;51.532;6.770;2022-09-09T01:54:25;3.40;;;1.10;;
21326;SDS011;10822;51.532;6.770;2022-09-09T01:59:27;1.77;;;1.00;;
21326;SDS011;10822;51.532;6.770;2022-09-09T02:04:25;2.05;;;0.90;;
21326;SDS011;10822;51.532;6.770;2022-09-09T02:06:54;2.60;;;1.23;;
21326;SDS011;10822;51.532;6.770;2022-09-09T02:09:25;1.17;;;0.68;;
21326;SDS011;10822;51.532;6.770;2022-09-09T02:11:55;2.22;;;1.05;;
21326;SDS011;10822;51.532;6.770;2022-09-09T02:14:25;1.83;;;0.90;;
21326;SDS011;10822;51.532;6.770;2022-09-09T02:21:50;2.53;;;0.95;;
21326;SDS011;10822;51.532;6.770;2022-09-09T02:24:18;3.25;;;0.93;;
21326;SDS011;10822;51.532;6.770;2022-09-09T02:26:44;1.55;;;0.80;;
21326;SDS011;10822;51.532;6.770;2022-09-09T02:29:13;2.45;;;1.10;;
21326;SDS011;10822;51.532;6.770;2022-09-09T02:31:40;1.65;;;0.95;;
21326;SDS011;10822;51.532;6.770;2022-09-09T02:34:07;0.95;;;0.70;;
21326;SDS011;10822;51.532;6.770;2022-09-09T02:36:36;2.58;;;0.95;;
21326;SDS011;10822;51.532;6.770;2022-09-09T02:39:03;3.30;;;0.95;;
21326;SDS011;10822;51.532;6.770;2022-09-09T02:41:32;3.17;;;1.20;;
21326;SDS011;10822;51.532;6.770;2022-09-09T02:43:59;2.72;;;1.30;;
21326;SDS011;10822;51.532;6.770;2022-09-09T02:46:29;3.92;;;1.40;;
21326;SDS011;10822;51.532;6.770;2022-09-09T02:49:02;3.80;;;1.50;;
21326;SDS011;10822;51.532;6.770;2022-09-09T02:51:51;3.90;;;1.30;;
21326;SDS011;10822;51.532;6.770;2022-09-09T02:54:26;2.70;;;1.60;;
21326;SDS011;10822;51.532;6.770;2022-09-09T02:56:56;3.67;;;1.50;;
21326;SDS011;10822;51.532;6.770;2022-09-09T02:59:26;4.47;;;1.40;;
21326;SDS011;10822;51.532;6.770;2022-09-09T03:01:52;3.55;;;1.40;;
21326;SDS011;10822;51.532;6.770;2022-09-09T03:04:18;2.15;;;1.38;;
21326;SDS011;10822;51.532;6.770;2022-09-09T03:06:45;3.08;;;1.50;;
21326;SDS011;10822;51.532;6.770;2022-09-09T03:09:11;1.45;;;1.08;;
21326;SDS011;10822;51.532;6.770;2022-09-09T03:11:37;2.78;;;1.25;;
21326;SDS011;10822;51.532;6.770;2022-09-09T03:14:03;2.15;;;1.10;;
21326;SDS011;10822;51.532;6.770;2022-09-09T03:16:29;3.53;;;1.48;;
21326;SDS011;10822;51.532;6.770;2022-09-09T03:18:55;4.03;;;1.63;;
21326;SDS011;10822;51.532;6.770;2022-09-09T03:21:21;2.25;;;1.23;;
21326;SDS011;10822;51.532;6.770;2022-09-09T03:23:47;2.08;;;1.00;;
21326;SDS011;10822;51.532;6.770;2022-09-09T03:26:13;2.13;;;0.80;;
21326;SDS011;10822;51.532;6.770;2022-09-09T03:28:42;1.58;;;0.93;;
21326;SDS011;10822;51.532;6.770;2022-09-09T03:31:09;3.15;;;0.90;;
21326;SDS011;10822;51.532;6.770;2022-09-09T03:33:36;3.15;;;0.80;;
21326;SDS011;10822;51.532;6.770;2022-09-09T03:36:02;1.95;;;1.10;;
21326;SDS011;10822;51.532;6.770;2022-09-09T03:38:28;2.72;;;0.95;;
21326;SDS011;10822;51.532;6.770;2022-09-09T03:40:55;2.45;;;0.85;;
21326;SDS011;10822;51.532;6.770;2022-09-09T03:43:22;3.70;;;1.00;;
21326;SDS011;10822;51.532;6.770;2022-09-09T03:45:49;3.75;;;1.40;;
21326;SDS011;10822;51.532;6.770;2022-09-09T03:48:15;3.15;;;1.17;;
21326;SDS011;10822;51.532;6.770;2022-09-09T03:50:48;3.75;;;1.42;;
21326;SDS011;10822;51.532;6.770;2022-09-09T03:53:14;1.75;;;0.88;;
21326;SDS011;10822;51.532;6.770;2022-09-09T03:55:44;2.83;;;1.00;;
21326;SDS011;10822;51.532;6.770;2022-09-09T03:58:10;3.30;;;1.17;;
21326;SDS011;10822;51.532;6.770;2022-09-09T04:00:36;4.50;;;1.38;;
21326;SDS011;10822;51.532;6.770;2022-09-09T04:03:07;2.10;;;1.08;;
21326;SDS011;10822;51.532;6.770;2022-09-09T04:05:33;3.25;;;1.45;;
21326;SDS011;10822;51.532;6.770;2022-09-09T04:07:59;2.65;;;1.17;;
21326;SDS011;10822;51.532;6.770;2022-09-09T04:10:25;2.97;;;1.10;;
21326;SDS011;10822;51.532;6.770;2022-09-09T04:12:51;3.58;;;1.10;;
21326;SDS011;10822;51.532;6.770;2022-09-09T04:15:17;3.22;;;1.05;;
21326;SDS011;10822;51.532;6.770;2022-09-09T04:17:43;2.22;;;0.93;;
21326;SDS011;10822;51.532;6.770;2022-09-09T04:20:09;2.70;;;0.90;;
21326;SDS011;10822;51.532;6.770;2022-09-09T04:22:37;2.25;;;0.90;;
21326;SDS011;10822;51.532;6.770;2022-09-09T04:25:04;2.92;;;1.00;;
21326;SDS011;10822;51.532;6.770;2022-09-09T04:27:30;2.78;;;1.38;;
21326;SDS011;10822;51.532;6.770;2022-09-09T04:29:56;2.22;;;1.05;;
21326;SDS011;10822;51.532;6.770;2022-09-09T04:32:23;2.20;;;0.90;;
21326;SDS011;10822;51.532;6.770;2022-09-09T04:34:51;2.50;;;0.90;;
21326;SDS011;10822;51.532;6.770;2022-09-09T04:37:17;1.75;;;1.05;;
21326;SDS011;10822;51.532;6.770;2022-09-09T04:39:43;3.20;;;1.40;;
21326;SDS011;10822;51.532;6.770;2022-09-09T04:42:10;3.40;;;1.17;;
21326;SDS011;10822;51.532;6.770;2022-09-09T04:44:37;2.50;;;0.80;;
21326;SDS011;10822;51.532;6.770;2022-09-09T04:47:04;2.67;;;1.15;;
21326;SDS011;10822;51.532;6.770;2022-09-09T04:49:30;2.92;;;1.40;;
21326;SDS011;10822;51.532;6.770;2022-09-09T04:51:56;2.90;;;1.25;;
21326;SDS011;10822;51.532;6.770;2022-09-09T04:54:22;3.17;;;1.40;;
21326;SDS011;10822;51.532;6.770;2022-09-09T04:56:49;4.63;;;1.40;;
21326;SDS011;10822;51.532;6.770;2022-09-09T04:59:15;3.72;;;1.30;;
21326;SDS011;10822;51.532;6.770;2022-09-09T05:01:41;4.88;;;1.42;;
21326;SDS011;10822;51.532;6.770;2022-09-09T05:04:07;5.30;;;1.70;;
21326;SDS011;10822;51.532;6.770;2022-09-09T05:06:34;3.75;;;1.58;;
21326;SDS011;10822;51.532;6.770;2022-09-09T05:09:01;4.00;;;2.10;;
21326;SDS011;10822;51.532;6.770;2022-09-09T05:11:28;4.03;;;1.27;;
21326;SDS011;10822;51.532;6.770;2022-09-09T05:13:55;3.95;;;2.03;;
21326;SDS011;10822;51.532;6.770;2022-09-09T05:16:24;5.20;;;1.63;;
21326;SDS011;10822;51.532;6.770;2022-09-09T05:18:50;4.25;;;1.40;;
21326;SDS011;10822;51.532;6.770;2022-09-09T05:21:16;5.05;;;1.70;;
21326;SDS011;10822;51.532;6.770;2022-09-09T05:23:44;3.15;;;1.30;;
21326;SDS011;10822;51.532;6.770;2022-09-09T05:26:14;4.53;;;1.55;;
21326;SDS011;10822;51.532;6.770;2022-09-09T05:28:40;5.45;;;1.63;;
21326;SDS011;10822;51.532;6.770;2022-09-09T05:31:07;3.35;;;1.50;;
21326;SDS011;10822;51.532;6.770;2022-09-09T05:33:33;4.35;;;1.90;;
21326;SDS011;10822;51.532;6.770;2022-09-09T05:36:00;3.38;;;1.38;;
21326;SDS011;10822;51.532;6.770;2022-09-09T05:38:27;4.15;;;1.50;;
21326;SDS011;10822;51.532;6.770;2022-09-09T05:40:54;3.97;;;2.08;;
21326;SDS011;10822;51.532;6.770;2022-09-09T05:43:22;4.53;;;1.70;;
21326;SDS011;10822;51.532;6.770;2022-09-09T05:45:48;2.45;;;1.50;;
21326;SDS011;10822;51.532;6.770;2022-09-09T05:48:14;2.70;;;1.20;;
21326;SDS011;10822;51.532;6.770;2022-09-09T05:50:41;4.43;;;1.50;;
21326;SDS011;10822;51.532;6.770;2022-09-09T05:53:07;5.78;;;1.70;;
21326;SDS011;10822;51.532;6.770;2022-09-09T05:55:33;4.13;;;1.73;;
21326;SDS011;10822;51.532;6.770;2022-09-09T05:57:59;3.67;;;1.58;;
21326;SDS011;10822;51.532;6.770;2022-09-09T06:00:26;3.83;;;1.60;;
21326;SDS011;10822;51.532;6.770;2022-09-09T06:02:52;4.85;;;1.52;;
21326;SDS011;10822;51.532;6.770;2022-09-09T06:05:18;4.32;;;1.42;;
21326;SDS011;10822;51.532;6.770;2022-09-09T06:07:45;4.68;;;1.55;;
21326;SDS011;10822;51.532;6.770;2022-09-09T06:10:11;2.53;;;1.33;;
21326;SDS011;10822;51.532;6.770;2022-09-09T06:12:38;2.67;;;1.20;;
21326;SDS011;10822;51.532;6.770;2022-09-09T06:15:05;3.72;;;1.38;;
21326;SDS011;10822;51.532;6.770;2022-09-09T06:17:31;3.63;;;1.52;;
21326;SDS011;10822;51.532;6.770;2022-09-09T06:19:57;4.30;;;1.50;;
21326;SDS011;10822;51.532;6.770;2022-09-09T06:22:23;5.07;;;1.63;;
21326;SDS011;10822;51.532;6.770;2022-09-09T06:24:49;7.75;;;1.80;;
21326;SDS011;10822;51.532;6.770;2022-09-09T06:27:16;4.50;;;1.63;;
21326;SDS011;10822;51.532;6.770;2022-09-09T06:29:41;5.07;;;1.80;;
21326;SDS011;10822;51.532;6.770;2022-09-09T06:32:07;3.30;;;1.25;;
21326;SDS011;10822;51.532;6.770;2022-09-09T06:34:34;2.40;;;1.17;;
21326;SDS011;10822;51.532;6.770;2022-09-09T06:37:01;1.95;;;1.10;;
21326;SDS011;10822;51.532;6.770;2022-09-09T06:39:27;4.32;;;1.48;;
21326;SDS011;10822;51.532;6.770;2022-09-09T06:41:53;2.90;;;1.23;;
21326;SDS011;10822;51.532;6.770;2022-09-09T06:44:19;4.82;;;1.35;;
21326;SDS011;10822;51.532;6.770;2022-09-09T06:46:45;2.92;;;1.38;;
21326;SDS011;10822;51.532;6.770;2022-09-09T06:49:14;4.40;;;1.17;;
21326;SDS011;10822;51.532;6.770;2022-09-09T06:51:40;3.15;;;0.82;;
21326;SDS011;10822;51.532;6.770;2022-09-09T06:54:08;4.72;;;1.00;;
21326;SDS011;10822;51.532;6.770;2022-09-09T06:56:37;4.97;;;1.08;;
21326;SDS011;10822;51.532;6.770;2022-09-09T06:59:06;4.10;;;1.08;;
21326;SDS011;10822;51.532;6.770;2022-09-09T07:01:33;3.28;;;1.23;;
21326;SDS011;10822;51.532;6.770;2022-09-09T07:04:00;1.98;;;1.23;;
21326;SDS011;10822;51.532;6.770;2022-09-09T07:06:33;4.65;;;1.10;;
21326;SDS011;10822;51.532;6.770;2022-09-09T07:09:00;4.03;;;1.50;;
21326;SDS011;10822;51.532;6.770;2022-09-09T07:11:29;3.53;;;1.27;;
21326;SDS011;10822;51.532;6.770;2022-09-09T07:13:57;2.35;;;1.10;;
21326;SDS011;10822;51.532;6.770;2022-09-09T07:16:23;2.22;;;1.05;;
21326;SDS011;10822;51.532;6.770;2022-09-09T07:18:49;5.72;;;1.75;;
21326;SDS011;10822;51.532;6.770;2022-09-09T07:21:16;2.15;;;1.10;;
21326;SDS011;10822;51.532;6.770;2022-09-09T07:23:42;1.45;;;0.60;;
21326;SDS011;10822;51.532;6.770;2022-09-09T07:26:15;4.00;;;0.70;;
21326;SDS011;10822;51.532;6.770;2022-09-09T07:28:42;3.38;;;0.70;;
21326;SDS011;10822;51.532;6.770;2022-09-09T07:31:15;3.13;;;0.70;;
21326;SDS011;10822;51.532;6.770;2022-09-09T07:33:41;2.97;;;0.80;;
21326;SDS011;10822;51.532;6.770;2022-09-09T07:36:08;2.70;;;0.70;;
21326;SDS011;10822;51.532;6.770;2022-09-09T07:38:39;2.25;;;0.90;;
21326;SDS011;10822;51.532;6.770;2022-09-09T07:41:06;1.33;;;0.65;;
21326;SDS011;10822;51.532;6.770;2022-09-09T07:43:33;4.07;;;1.13;;
21326;SDS011;10822;51.532;6.770;2022-09-09T07:45:59;3.90;;;1.00;;
21326;SDS011;10822;51.532;6.770;2022-09-09T07:48:29;2.58;;;0.50;;
21326;SDS011;10822;51.532;6.770;2022-09-09T07:51:09;1.52;;;0.50;;
21326;SDS011;10822;51.532;6.770;2022-09-09T07:53:36;2.95;;;1.10;;
21326;SDS011;10822;51.532;6.770;2022-09-09T07:56:07;4.07;;;1.00;;
21326;SDS011;10822;51.532;6.770;2022-09-09T07:58:34;3.20;;;0.60;;
21326;SDS011;10822;51.532;6.770;2022-09-09T08:01:00;2.80;;;0.75;;
21326;SDS011;10822;51.532;6.770;2022-09-09T08:03:26;3.33;;;1.08;;
21326;SDS011;10822;51.532;6.770;2022-09-09T08:05:52;2.67;;;0.80;;
21326;SDS011;10822;51.532;6.770;2022-09-09T08:08:18;5.13;;;1.00;;
21326;SDS011;10822;51.532;6.770;2022-09-09T08:10:44;3.67;;;0.88;;
21326;SDS011;10822;51.532;6.770;2022-09-09T08:13:10;2.35;;;0.75;;
21326;SDS011;10822;51.532;6.770;2022-09-09T08:15:37;2.83;;;0.88;;
21326;SDS011;10822;51.532;6.770;2022-09-09T08:18:04;3.42;;;0.63;;
21326;SDS011;10822;51.532;6.770;2022-09-09T08:20:30;4.03;;;0.82;;
21326;SDS011;10822;51.532;6.770;2022-09-09T08:22:56;2.90;;;0.90;;
21326;SDS011;10822;51.532;6.770;2022-09-09T08:25:23;2.90;;;0.85;;
21326;SDS011;10822;51.532;6.770;2022-09-09T08:27:49;2.58;;;0.88;;
21326;SDS011;10822;51.532;6.770;2022-09-09T08:30:15;3.75;;;1.10;;
21326;SDS011;10822;51.532;6.770;2022-09-09T08:32:41;2.45;;;0.90;;
21326;SDS011;10822;51.532;6.770;2022-09-09T08:35:08;2.83;;;0.90;;
21326;SDS011;10822;51.532;6.770;2022-09-09T08:37:34;5.05;;;1.00;;
21326;SDS011;10822;51.532;6.770;2022-09-09T08:40:00;4.20;;;0.85;;
21326;SDS011;10822;51.532;6.770;2022-09-09T08:57:40;6.95;;;0.90;;
21326;SDS011;10822;51.532;6.770;2022-09-09T09:00:09;2.13;;;0.80;;
21326;SDS011;10822;51.532;6.770;2022-09-09T09:02:43;2.70;;;0.65;;
21326;SDS011;10822;51.532;6.770;2022-09-09T09:10:49;2.13;;;0.60;;
21326;SDS011;10822;51.532;6.770;2022-09-09T09:15:46;1.48;;;0.60;;
21326;SDS011;10822;51.532;6.770;2022-09-09T09:18:14;3.58;;;1.27;;
21326;SDS011;10822;51.532;6.770;2022-09-09T09:20:44;2.60;;;1.00;;
21326;SDS011;10822;51.532;6.770;2022-09-09T09:23:17;4.22;;;1.35;;
21326;SDS011;10822;51.532;6.770;2022-09-09T09:25:45;3.17;;;0.55;;
21326;SDS011;10822;51.532;6.770;2022-09-09T09:30:43;3.58;;;0.75;;
21326;SDS011;10822;51.532;6.770;2022-09-09T09:33:53;2.47;;;0.57;;
21326;SDS011;10822;51.532;6.770;2022-09-09T09:36:00;4.68;;;0.88;;
21326;SDS011;10822;51.532;6.770;2022-09-09T09:38:28;2.75;;;0.63;;
21326;SDS011;10822;51.532;6.770;2022-09-09T09:40:58;2.70;;;0.70;;
21326;SDS011;10822;51.532;6.770;2022-09-09T09:43:26;2.85;;;0.65;;
21326;SDS011;10822;51.532;6.770;2022-09-09T09:45:53;3.78;;;0.90;;
21326;SDS011;10822;51.532;6.770;2022-09-09T09:48:20;4.30;;;0.70;;
21326;SDS011;10822;51.532;6.770;2022-09-09T09:50:46;1.70;;;0.52;;
21326;SDS011;10822;51.532;6.770;2022-09-09T09:55:53;2.97;;;0.57;;
21326;SDS011;10822;51.532;6.770;2022-09-09T09:58:19;5.97;;;1.10;;
21326;SDS011;10822;51.532;6.770;2022-09-09T10:00:52;1.65;;;0.70;;
21326;SDS011;10822;51.532;6.770;2022-09-09T10:03:40;1.17;;;0.47;;
21326;SDS011;10822;51.532;6.770;2022-09-09T10:06:06;2.00;;;0.70;;
21326;SDS011;10822;51.532;6.770;2022-09-09T10:08:34;2.05;;;0.95;;
21326;SDS011;10822;51.532;6.770;2022-09-09T10:34:05;1.88;;;0.77;;
21326;SDS011;10822;51.532;6.770;2022-09-09T10:36:39;1.90;;;0.60;;
21326;SDS011;10822;51.532;6.770;2022-09-09T10:52:14;2.35;;;0.57;;
21326;SDS011;10822;51.532;6.770;2022-09-09T10:54:53;2.55;;;0.63;;
21326;SDS011;10822;51.532;6.770;2022-09-09T10:57:24;2.78;;;0.47;;
21326;SDS011;10822;51.532;6.770;2022-09-09T10:59:53;0.50;;;0.30;;
21326;SDS011;10822;51.532;6.770;2022-09-09T11:07:40;2.10;;;0.90;;
21326;SDS011;10822;51.532;6.770;2022-09-09T11:10:19;2.30;;;0.47;;
21326;SDS011;10822;51.532;6.770;2022-09-09T11:12:49;3.50;;;0.40;;
21326;SDS011;10822;51.532;6.770;2022-09-09T11:15:28;2.03;;;0.50;;
21326;SDS011;10822;51.532;6.770;2022-09-09T11:17:56;1.50;;;0.63;;
21326;SDS011;10822;51.532;6.770;2022-09-09T11:20:24;1.00;;;0.50;;
21326;SDS011;10822;51.532;6.770;2022-09-09T11:25:18;3.55;;;0.80;;
21326;SDS011;10822;51.532;6.770;2022-09-09T11:35:57;3.97;;;0.77;;
21326;SDS011;10822;51.532;6.770;2022-09-09T11:40:55;1.98;;;0.50;;
21326;SDS011;10822;51.532;6.770;2022-09-09T11:43:25;1.52;;;0.40;;
21326;SDS011;10822;51.532;6.770;2022-09-09T11:45:53;5.75;;;0.68;;
21326;SDS011;10822;51.532;6.770;2022-09-09T11:48:30;3.33;;;0.70;;
21326;SDS011;10822;51.532;6.770;2022-09-09T11:51:08;3.95;;;0.93;;
21326;SDS011;10822;51.532;6.770;2022-09-09T11:53:35;2.65;;;0.50;;
21326;SDS011;10822;51.532;6.770;2022-09-09T11:56:13;1.15;;;0.45;;
21326;SDS011;10822;51.532;6.770;2022-09-09T11:58:56;3.60;;;0.50;;
21326;SDS011;10822;51.532;6.770;2022-09-09T12:01:57;2.15;;;0.50;;
21326;SDS011;10822;51.532;6.770;2022-09-09T12:04:26;3.05;;;0.73;;
21326;SDS011;10822;51.532;6.770;2022-09-09T12:11:51;2.20;;;0.50;;
21326;SDS011;10822;51.532;6.770;2022-09-09T12:16:46;1.23;;;0.57;;
21326;SDS011;10822;51.532;6.770;2022-09-09T12:19:20;1.40;;;0.50;;
21326;SDS011;10822;51.532;6.770;2022-09-09T12:24:18;8.27;;;1.75;;
21326;SDS011;10822;51.532;6.770;2022-09-09T12:29:48;1.08;;;0.50;;
21326;SDS011;10822;51.532;6.770;2022-09-09T12:32:22;2.03;;;0.70;;
21326;SDS011;10822;51.532;6.770;2022-09-09T12:39:49;4.75;;;1.27;;
21326;SDS011;10822;51.532;6.770;2022-09-09T12:42:18;2.47;;;1.10;;
21326;SDS011;10822;51.532;6.770;2022-09-09T12:44:55;1.63;;;0.70;;
21326;SDS011;10822;51.532;6.770;2022-09-09T12:47:23;1.73;;;0.68;;
21326;SDS011;10822;51.532;6.770;2022-09-09T12:49:50;1.00;;;0.60;;
21326;SDS011;10822;51.532;6.770;2022-09-09T12:54:49;1.75;;;0.28;;
21326;SDS011;10822;51.532;6.770;2022-09-09T12:57:18;1.65;;;0.60;;
21326;SDS011;10822;51.532;6.770;2022-09-09T12:59:44;1.92;;;0.43;;
21326;SDS011;10822;51.532;6.770;2022-09-09T13:04:42;1.58;;;0.70;;
21326;SDS011;10822;51.532;6.770;2022-09-09T13:07:10;1.48;;;0.50;;
21326;SDS011;10822;51.532;6.770;2022-09-09T13:09:37;2.30;;;0.80;;
21326;SDS011;10822;51.532;6.770;2022-09-09T13:12:03;6.22;;;1.10;;
21326;SDS011;10822;51.532;6.770;2022-09-09T13:14:34;5.78;;;1.40;;
21326;SDS011;10822;51.532;6.770;2022-09-09T13:17:03;2.70;;;0.80;;
21326;SDS011;10822;51.532;6.770;2022-09-09T13:19:30;1.95;;;0.68;;
21326;SDS011;10822;51.532;6.770;2022-09-09T13:21:58;1.48;;;0.70;;
21326;SDS011;10822;51.532;6.770;2022-09-09T13:24:31;1.08;;;0.43;;
21326;SDS011;10822;51.532;6.770;2022-09-09T13:26:59;0.43;;;0.40;;
21326;SDS011;10822;51.532;6.770;2022-09-09T13:29:26;1.30;;;0.70;;
21326;SDS011;10822;51.532;6.770;2022-09-09T13:31:52;1.70;;;0.60;;
21326;SDS011;10822;51.532;6.770;2022-09-09T13:36:59;2.42;;;0.70;;
21326;SDS011;10822;51.532;6.770;2022-09-09T13:39:27;1.25;;;0.70;;
21326;SDS011;10822;51.532;6.770;2022-09-09T13:41:53;0.80;;;0.50;;
21326;SDS011;10822;51.532;6.770;2022-09-09T13:46:58;1.60;;;0.52;;
21326;SDS011;10822;51.532;6.770;2022-09-09T13:49:24;1.63;;;0.50;;
21326;SDS011;10822;51.532;6.770;2022-09-09T13:52:02;1.48;;;0.63;;
21326;SDS011;10822;51.532;6.770;2022-09-09T13:54:28;4.82;;;0.88;;
21326;SDS011;10822;51.532;6.770;2022-09-09T13:56:55;1.10;;;0.60;;
21326;SDS011;10822;51.532;6.770;2022-09-09T13:59:21;2.53;;;0.85;;
21326;SDS011;10822;51.532;6.770;2022-09-09T14:01:49;1.92;;;0.68;;
21326;SDS011;10822;51.532;6.770;2022-09-09T14:04:17;1.67;;;0.50;;
21326;SDS011;10822;51.532;6.770;2022-09-09T14:06:46;2.10;;;1.20;;
21326;SDS011;10822;51.532;6.770;2022-09-09T14:09:14;3.22;;;0.85;;
21326;SDS011;10822;51.532;6.770;2022-09-09T14:11:40;3.35;;;0.80;;
21326;SDS011;10822;51.532;6.770;2022-09-09T14:14:06;2.47;;;0.98;;
21326;SDS011;10822;51.532;6.770;2022-09-09T14:16:32;2.97;;;0.90;;
21326;SDS011;10822;51.532;6.770;2022-09-09T14:18:58;1.83;;;0.68;;
21326;SDS011;10822;51.532;6.770;2022-09-09T14:21:24;1.60;;;0.60;;
21326;SDS011;10822;51.532;6.770;2022-09-09T14:23:50;2.35;;;0.57;;
21326;SDS011;10822;51.532;6.770;2022-09-09T14:26:17;3.55;;;0.75;;
21326;SDS011;10822;51.532;6.770;2022-09-09T14:28:46;2.85;;;0.98;;
21326;SDS011;10822;51.532;6.770;2022-09-09T14:31:12;4.63;;;1.10;;
21326;SDS011;10822;51.532;6.770;2022-09-09T14:33:42;2.80;;;1.00;;
21326;SDS011;10822;51.532;6.770;2022-09-09T14:36:08;3.67;;;1.20;;
21326;SDS011;10822;51.532;6.770;2022-09-09T14:38:35;3.20;;;0.98;;
21326;SDS011;10822;51.532;6.770;2022-09-09T14:41:09;1.50;;;0.60;;
21326;SDS011;10822;51.532;6.770;2022-09-09T14:43:37;0.90;;;0.47;;
21326;SDS011;10822;51.532;6.770;2022-09-09T14:46:10;0.57;;;0.45;;
21326;SDS011;10822;51.532;6.770;2022-09-09T14:48:36;1.48;;;0.90;;
21326;SDS011;10822;51.532;6.770;2022-09-09T14:51:09;2.20;;;0.95;;
21326;SDS011;10822;51.532;6.770;2022-09-09T14:53:35;2.42;;;0.80;;
21326;SDS011;10822;51.532;6.770;2022-09-09T14:56:07;1.10;;;0.68;;
21326;SDS011;10822;51.532;6.770;2022-09-09T14:58:34;0.88;;;0.30;;
21326;SDS011;10822;51.532;6.770;2022-09-09T15:01:04;1.55;;;0.57;;
21326;SDS011;10822;51.532;6.770;2022-09-09T15:03:31;1.05;;;0.40;;
21326;SDS011;10822;51.532;6.770;2022-09-09T15:05:57;2.83;;;0.95;;
21326;SDS011;10822;51.532;6.770;2022-09-09T15:08:25;2.17;;;0.50;;
21326;SDS011;10822;51.532;6.770;2022-09-09T15:10:58;5.07;;;0.88;;
21326;SDS011;10822;51.532;6.770;2022-09-09T15:13:24;1.98;;;0.60;;
21326;SDS011;10822;51.532;6.770;2022-09-09T15:15:50;2.58;;;0.80;;
21326;SDS011;10822;51.532;6.770;2022-09-09T15:18:16;4.88;;;1.23;;
21326;SDS011;10822;51.532;6.770;2022-09-09T15:20:45;3.78;;;1.65;;
21326;SDS011;10822;51.532;6.770;2022-09-09T15:23:12;5.13;;;1.70;;
21326;SDS011;10822;51.532;6.770;2022-09-09T15:25:38;3.20;;;1.50;;
21326;SDS011;10822;51.532;6.770;2022-09-09T15:28:06;4.00;;;1.30;;
21326;SDS011;10822;51.532;6.770;2022-09-09T15:30:31;2.45;;;1.20;;
21326;SDS011;10822;51.532;6.770;2022-09-09T15:32:57;1.75;;;0.80;;
21326;SDS011;10822;51.532;6.770;2022-09-09T15:35:23;2.17;;;0.70;;
21326;SDS011;10822;51.532;6.770;2022-09-09T15:37:49;1.65;;;0.88;;
21326;SDS011;10822;51.532;6.770;2022-09-09T15:40:15;0.65;;;0.50;;
21326;SDS011;10822;51.532;6.770;2022-09-09T15:42:41;2.60;;;0.70;;
21326;SDS011;10822;51.532;6.770;2022-09-09T15:45:07;1.00;;;0.68;;
21326;SDS011;10822;51.532;6.770;2022-09-09T15:47:34;3.55;;;0.80;;
21326;SDS011;10822;51.532;6.770;2022-09-09T15:50:00;2.45;;;1.08;;
21326;SDS011;10822;51.532;6.770;2022-09-09T15:52:26;2.92;;;0.93;;
21326;SDS011;10822;51.532;6.770;2022-09-09T15:54:52;3.50;;;1.23;;
21326;SDS011;10822;51.532;6.770;2022-09-09T15:57:18;3.88;;;1.20;;
21326;SDS011;10822;51.532;6.770;2022-09-09T15:59:44;2.45;;;1.20;;
21326;SDS011;10822;51.532;6.770;2022-09-09T16:02:10;4.20;;;1.20;;
21326;SDS011;10822;51.532;6.770;2022-09-09T16:04:36;4.13;;;1.35;;
21326;SDS011;10822;51.532;6.770;2022-09-09T16:07:03;3.53;;;1.13;;
21326;SDS011;10822;51.532;6.770;2022-09-09T16:09:29;1.83;;;1.00;;
21326;SDS011;10822;51.532;6.770;2022-09-09T16:11:56;1.33;;;0.90;;
21326;SDS011;10822;51.532;6.770;2022-09-09T16:14:23;3.35;;;1.13;;
21326;SDS011;10822;51.532;6.770;2022-09-09T16:16:50;2.35;;;0.98;;
21326;SDS011;10822;51.532;6.770;2022-09-09T16:19:17;5.05;;;1.15;;
21326;SDS011;10822;51.532;6.770;2022-09-09T16:21:44;2.65;;;1.13;;
21326;SDS011;10822;51.532;6.770;2022-09-09T16:24:11;3.83;;;1.17;;
21326;SDS011;10822;51.532;6.770;2022-09-09T16:26:39;3.92;;;1.05;;
21326;SDS011;10822;51.532;6.770;2022-09-09T16:29:05;3.53;;;0.88;;
21326;SDS011;10822;51.532;6.770;2022-09-09T16:31:31;0.88;;;0.50;;
21326;SDS011;10822;51.532;6.770;2022-09-09T16:33:57;2.70;;;0.80;;
21326;SDS011;10822;51.532;6.770;2022-09-09T16:36:24;1.90;;;0.45;;
21326;SDS011;10822;51.532;6.770;2022-09-09T16:38:54;0.88;;;0.50;;
21326;SDS011;10822;51.532;6.770;2022-09-09T16:41:21;1.65;;;0.40;;
21326;SDS011;10822;51.532;6.770;2022-09-09T16:43:47;1.73;;;0.70;;
21326;SDS011;10822;51.532;6.770;2022-09-09T16:46:18;1.70;;;0.50;;
21326;SDS011;10822;51.532;6.770;2022-09-09T16:48:45;2.35;;;1.00;;
21326;SDS011;10822;51.532;6.770;2022-09-09T16:51:12;3.88;;;1.00;;
21326;SDS011;10822;51.532;6.770;2022-09-09T16:53:39;2.80;;;1.70;;
21326;SDS011;10822;51.532;6.770;2022-09-09T16:56:08;3.33;;;1.70;;
21326;SDS011;10822;51.532;6.770;2022-09-09T16:58:34;2.75;;;1.40;;
21326;SDS011;10822;51.532;6.770;2022-09-09T17:01:01;4.10;;;1.40;;
21326;SDS011;10822;51.532;6.770;2022-09-09T17:03:28;2.08;;;1.58;;
21326;SDS011;10822;51.532;6.770;2022-09-09T17:05:54;5.32;;;2.42;;
21326;SDS011;10822;51.532;6.770;2022-09-09T17:08:20;3.90;;;2.15;;
21326;SDS011;10822;51.532;6.770;2022-09-09T17:10:46;6.68;;;4.00;;
21326;SDS011;10822;51.532;6.770;2022-09-09T17:13:12;4.35;;;2.50;;
21326;SDS011;10822;51.532;6.770;2022-09-09T17:15:39;2.97;;;1.50;;
21326;SDS011;10822;51.532;6.770;2022-09-09T17:18:07;3.67;;;1.60;;
21326;SDS011;10822;51.532;6.770;2022-09-09T17:20:35;2.25;;;0.90;;
21326;SDS011;10822;51.532;6.770;2022-09-09T17:23:01;0.85;;;0.73;;
21326;SDS011;10822;51.532;6.770;2022-09-09T17:25:27;1.02;;;0.90;;
21326;SDS011;10822;51.532;6.770;2022-09-09T17:27:52;2.83;;;1.08;;